Radar is unstable, so pay attention to the date and time in the image

Latest  Newer  Older  Last 2 hours animation  Current image  Latest image  Summary per 24h (testing)  Summary per 7d (testing) 
Cloud coverage sat images  Infrared sat images 
Real-time lightning map Aurora Forecast

All time is UTC (add 2 hours in wintertime, 3 hours in DST for Latvia local time)

2021/06/21 15:50 EVRA 211550Z 16012KT CAVOK 32/19 Q1012 NOSIG
2021/06/21 15:50 EVLA 211550Z AUTO 12010KT 9999 NCD 32/18 Q1009
2021/06/21 15:50 EVVA 211550Z AUTO 32004KT 290V350 CAVOK 30/17 Q1010
2021/06/21 15:50 EYKA 211550Z 10012KT 060V130 CAVOK 32/16 Q1011
2021/06/21 15:50 EYPA 211550Z 15011KT CAVOK 33/16 Q1009
2021/06/21 15:50 EYSA 211550Z 11010KT CAVOK 31/18 Q1012 BLU NOSIG
2021/06/21 15:50 EYVI 211550Z 13011KT CAVOK 28/13 Q1013 NOSIG
2021/06/21 15:20 EEKA 211520Z 16010KT CAVOK 30/18 Q1011
2021/06/21 15:50 EEKE 211550Z 19009KT CAVOK 26/18 Q1011

2021/06/21 15:50 EETN 211550Z 20009KT CAVOK 32/17 Q1012 NOSIG
2021/06/21 15:50 EETU 211550Z AUTO 14008KT 9999 NCD 31/19 Q1013
   RIGA AIRPORT     EVRA               56 55N  023 58E   10   X     T          6 LV
   LIEPAJA INTL     EVLA        26406  56 31N  021 06E    4   X                8 LV
   VENTPILS         EVVA               57 21N  021 33E    6   X                8 LV
   KAUNAS           EYKA               54 54N  023 55E   77   X     T          6 LT
   PALANGA INTL     EYPA               55 55N  021 03E   10   X                6 LT
   SIAULIAI INTL    EYSA               55 54N  023 24E  135   X     T          6 LT
   VILNIUS INTL     EYVI        26730  54 38N  025 17E  197   X     T          6 LT
   KARDLA           EEKA        26116  58 59N  022 50E    4   X                8 EE
   KURESSAARE       EEKE               58 14N  022 31E    4   X                8 EE
   PARNU            EEPU               58 25N  024 28E   14   X                8 EE
   TALLINN          EETN        26038  59 24N  024 49E   40   X     T          8 EE
   TARTU            EETU               58 19N  026 41E   67   X                8 EE

rain/snow radar image from www.meteo.lv and METAR data from weather.noaa.gov